sensor_id;sensor_type;location;lat;lon;timestamp;P1;durP1;ratioP1;P2;durP2;ratioP2
51907;SDS011;39320;53.214;6.556;2022-08-19T00:00:24;6.43;;;3.40;;
51907;SDS011;39320;53.214;6.556;2022-08-19T00:02:52;5.30;;;3.83;;
51907;SDS011;39320;53.214;6.556;2022-08-19T00:05:18;4.40;;;3.53;;
51907;SDS011;39320;53.214;6.556;2022-08-19T00:07:45;7.07;;;4.05;;
51907;SDS011;39320;53.214;6.556;2022-08-19T00:10:12;7.93;;;4.38;;
51907;SDS011;39320;53.214;6.556;2022-08-19T00:12:39;6.03;;;4.50;;
51907;SDS011;39320;53.214;6.556;2022-08-19T00:15:07;6.38;;;4.78;;
51907;SDS011;39320;53.214;6.556;2022-08-19T00:17:37;6.80;;;4.03;;
51907;SDS011;39320;53.214;6.556;2022-08-19T00:20:14;7.72;;;4.30;;
51907;SDS011;39320;53.214;6.556;2022-08-19T00:22:42;4.80;;;3.88;;
51907;SDS011;39320;53.214;6.556;2022-08-19T00:25:09;7.20;;;4.50;;
51907;SDS011;39320;53.214;6.556;2022-08-19T00:27:35;6.43;;;4.05;;
51907;SDS011;39320;53.214;6.556;2022-08-19T00:30:00;6.35;;;4.10;;
51907;SDS011;39320;53.214;6.556;2022-08-19T00:32:28;10.55;;;4.25;;
51907;SDS011;39320;53.214;6.556;2022-08-19T00:34:54;6.28;;;4.07;;
51907;SDS011;39320;53.214;6.556;2022-08-19T00:37:23;5.38;;;4.32;;
51907;SDS011;39320;53.214;6.556;2022-08-19T00:39:51;7.45;;;4.65;;
51907;SDS011;39320;53.214;6.556;2022-08-19T00:42:18;7.57;;;4.15;;
51907;SDS011;39320;53.214;6.556;2022-08-19T00:44:45;5.45;;;4.35;;
51907;SDS011;39320;53.214;6.556;2022-08-19T00:47:11;4.43;;;3.70;;
51907;SDS011;39320;53.214;6.556;2022-08-19T00:49:40;6.10;;;4.63;;
51907;SDS011;39320;53.214;6.556;2022-08-19T00:52:14;6.28;;;4.47;;
51907;SDS011;39320;53.214;6.556;2022-08-19T00:54:44;6.13;;;4.50;;
51907;SDS011;39320;53.214;6.556;2022-08-19T00:57:15;5.50;;;4.05;;
51907;SDS011;39320;53.214;6.556;2022-08-19T00:59:44;6.93;;;4.15;;
51907;SDS011;39320;53.214;6.556;2022-08-19T01:02:13;7.25;;;4.13;;
51907;SDS011;39320;53.214;6.556;2022-08-19T01:04:41;8.35;;;4.55;;
51907;SDS011;39320;53.214;6.556;2022-08-19T01:07:10;10.93;;;4.55;;
51907;SDS011;39320;53.214;6.556;2022-08-19T01:09:39;7.50;;;4.78;;
51907;SDS011;39320;53.214;6.556;2022-08-19T01:12:05;6.70;;;4.63;;
51907;SDS011;39320;53.214;6.556;2022-08-19T01:14:32;5.95;;;4.32;;
51907;SDS011;39320;53.214;6.556;2022-08-19T01:16:59;7.25;;;4.50;;
51907;SDS011;39320;53.214;6.556;2022-08-19T01:19:29;5.88;;;4.50;;
51907;SDS011;39320;53.214;6.556;2022-08-19T01:24:48;5.85;;;4.35;;
51907;SDS011;39320;53.214;6.556;2022-08-19T01:27:16;8.45;;;4.65;;
51907;SDS011;39320;53.214;6.556;2022-08-19T01:29:43;6.68;;;4.60;;
51907;SDS011;39320;53.214;6.556;2022-08-19T01:32:15;7.00;;;5.15;;
51907;SDS011;39320;53.214;6.556;2022-08-19T01:34:42;8.65;;;4.53;;
51907;SDS011;39320;53.214;6.556;2022-08-19T01:37:13;9.48;;;5.30;;
51907;SDS011;39320;53.214;6.556;2022-08-19T01:39:40;8.77;;;6.45;;
51907;SDS011;39320;53.214;6.556;2022-08-19T01:42:07;8.50;;;5.75;;
51907;SDS011;39320;53.214;6.556;2022-08-19T01:44:36;11.07;;;6.32;;
51907;SDS011;39320;53.214;6.556;2022-08-19T01:47:03;9.02;;;6.13;;
51907;SDS011;39320;53.214;6.556;2022-08-19T01:49:30;8.35;;;6.32;;
51907;SDS011;39320;53.214;6.556;2022-08-19T01:51:56;10.10;;;6.50;;
51907;SDS011;39320;53.214;6.556;2022-08-19T01:54:23;10.52;;;7.05;;
51907;SDS011;39320;53.214;6.556;2022-08-19T01:56:50;11.68;;;6.90;;
51907;SDS011;39320;53.214;6.556;2022-08-19T01:59:19;10.10;;;6.95;;
51907;SDS011;39320;53.214;6.556;2022-08-19T02:01:48;9.63;;;6.30;;
51907;SDS011;39320;53.214;6.556;2022-08-19T02:04:14;8.77;;;6.18;;
51907;SDS011;39320;53.214;6.556;2022-08-19T02:06:40;10.63;;;6.40;;
51907;SDS011;39320;53.214;6.556;2022-08-19T02:09:06;11.07;;;7.00;;
51907;SDS011;39320;53.214;6.556;2022-08-19T02:11:34;15.82;;;7.22;;
51907;SDS011;39320;53.214;6.556;2022-08-19T02:14:02;7.85;;;6.50;;
51907;SDS011;39320;53.214;6.556;2022-08-19T02:16:30;8.95;;;6.65;;
51907;SDS011;39320;53.214;6.556;2022-08-19T02:18:57;10.40;;;7.80;;
51907;SDS011;39320;53.214;6.556;2022-08-19T02:21:27;8.68;;;6.20;;
51907;SDS011;39320;53.214;6.556;2022-08-19T02:23:54;8.30;;;6.43;;
51907;SDS011;39320;53.214;6.556;2022-08-19T02:26:21;10.00;;;6.57;;
51907;SDS011;39320;53.214;6.556;2022-08-19T02:28:48;7.85;;;6.07;;
51907;SDS011;39320;53.214;6.556;2022-08-19T02:31:18;8.63;;;6.50;;
51907;SDS011;39320;53.214;6.556;2022-08-19T02:33:46;8.80;;;7.07;;
51907;SDS011;39320;53.214;6.556;2022-08-19T02:36:12;10.95;;;6.32;;
51907;SDS011;39320;53.214;6.556;2022-08-19T02:38:40;8.45;;;6.25;;
51907;SDS011;39320;53.214;6.556;2022-08-19T02:41:21;7.53;;;5.65;;
51907;SDS011;39320;53.214;6.556;2022-08-19T02:43:48;7.80;;;6.45;;
51907;SDS011;39320;53.214;6.556;2022-08-19T02:46:15;7.90;;;5.60;;
51907;SDS011;39320;53.214;6.556;2022-08-19T02:48:46;7.38;;;5.68;;
51907;SDS011;39320;53.214;6.556;2022-08-19T02:51:18;9.45;;;6.22;;
51907;SDS011;39320;53.214;6.556;2022-08-19T02:53:45;7.70;;;5.82;;
51907;SDS011;39320;53.214;6.556;2022-08-19T02:56:11;11.20;;;6.25;;
51907;SDS011;39320;53.214;6.556;2022-08-19T02:58:37;9.77;;;6.40;;
51907;SDS011;39320;53.214;6.556;2022-08-19T03:01:03;7.63;;;6.05;;
51907;SDS011;39320;53.214;6.556;2022-08-19T03:03:29;7.50;;;5.70;;
51907;SDS011;39320;53.214;6.556;2022-08-19T03:06:07;6.22;;;5.00;;
51907;SDS011;39320;53.214;6.556;2022-08-19T03:08:36;8.50;;;6.20;;
51907;SDS011;39320;53.214;6.556;2022-08-19T03:11:03;7.47;;;5.65;;
51907;SDS011;39320;53.214;6.556;2022-08-19T03:13:29;8.73;;;6.05;;
51907;SDS011;39320;53.214;6.556;2022-08-19T03:15:55;6.45;;;5.32;;
51907;SDS011;39320;53.214;6.556;2022-08-19T03:18:21;9.00;;;5.82;;
51907;SDS011;39320;53.214;6.556;2022-08-19T03:20:49;7.43;;;5.30;;
51907;SDS011;39320;53.214;6.556;2022-08-19T03:23:18;7.07;;;4.97;;
51907;SDS011;39320;53.214;6.556;2022-08-19T03:25:48;7.38;;;5.50;;
51907;SDS011;39320;53.214;6.556;2022-08-19T03:28:15;7.68;;;5.32;;
51907;SDS011;39320;53.214;6.556;2022-08-19T03:30:42;11.90;;;6.00;;
51907;SDS011;39320;53.214;6.556;2022-08-19T03:33:21;8.23;;;5.63;;
51907;SDS011;39320;53.214;6.556;2022-08-19T03:35:47;7.53;;;5.60;;
51907;SDS011;39320;53.214;6.556;2022-08-19T03:38:13;8.30;;;5.55;;
51907;SDS011;39320;53.214;6.556;2022-08-19T03:40:38;9.85;;;5.45;;
51907;SDS011;39320;53.214;6.556;2022-08-19T03:43:04;7.57;;;5.40;;
51907;SDS011;39320;53.214;6.556;2022-08-19T03:45:31;7.03;;;5.50;;
51907;SDS011;39320;53.214;6.556;2022-08-19T03:47:56;7.35;;;5.55;;
51907;SDS011;39320;53.214;6.556;2022-08-19T03:50:22;9.50;;;5.80;;
51907;SDS011;39320;53.214;6.556;2022-08-19T03:52:49;10.45;;;5.82;;
51907;SDS011;39320;53.214;6.556;2022-08-19T03:55:16;9.95;;;5.50;;
51907;SDS011;39320;53.214;6.556;2022-08-19T03:57:43;6.65;;;5.07;;
51907;SDS011;39320;53.214;6.556;2022-08-19T04:00:11;8.18;;;5.30;;
51907;SDS011;39320;53.214;6.556;2022-08-19T04:02:37;7.95;;;5.45;;
51907;SDS011;39320;53.214;6.556;2022-08-19T04:05:03;6.40;;;5.47;;
51907;SDS011;39320;53.214;6.556;2022-08-19T04:07:30;8.13;;;5.43;;
51907;SDS011;39320;53.214;6.556;2022-08-19T04:09:56;8.02;;;5.50;;
51907;SDS011;39320;53.214;6.556;2022-08-19T04:12:21;9.60;;;6.93;;
51907;SDS011;39320;53.214;6.556;2022-08-19T04:14:47;9.27;;;6.00;;
51907;SDS011;39320;53.214;6.556;2022-08-19T04:17:13;8.95;;;5.97;;
51907;SDS011;39320;53.214;6.556;2022-08-19T04:19:39;9.00;;;5.93;;
51907;SDS011;39320;53.214;6.556;2022-08-19T04:22:06;8.38;;;6.03;;
51907;SDS011;39320;53.214;6.556;2022-08-19T04:24:35;6.90;;;6.00;;
51907;SDS011;39320;53.214;6.556;2022-08-19T04:27:01;8.93;;;6.00;;
51907;SDS011;39320;53.214;6.556;2022-08-19T04:29:27;7.43;;;5.60;;
51907;SDS011;39320;53.214;6.556;2022-08-19T04:31:54;7.45;;;5.57;;
51907;SDS011;39320;53.214;6.556;2022-08-19T04:34:22;7.50;;;5.57;;
51907;SDS011;39320;53.214;6.556;2022-08-19T04:36:51;10.20;;;6.35;;
51907;SDS011;39320;53.214;6.556;2022-08-19T04:39:20;8.68;;;6.07;;
51907;SDS011;39320;53.214;6.556;2022-08-19T04:41:48;8.50;;;5.75;;
51907;SDS011;39320;53.214;6.556;2022-08-19T04:44:33;9.65;;;6.35;;
51907;SDS011;39320;53.214;6.556;2022-08-19T04:47:01;6.93;;;5.60;;
51907;SDS011;39320;53.214;6.556;2022-08-19T04:49:30;9.13;;;6.50;;
51907;SDS011;39320;53.214;6.556;2022-08-19T04:51:56;7.63;;;5.75;;
51907;SDS011;39320;53.214;6.556;2022-08-19T04:54:23;9.60;;;5.82;;
51907;SDS011;39320;53.214;6.556;2022-08-19T04:56:50;9.50;;;6.25;;
51907;SDS011;39320;53.214;6.556;2022-08-19T04:59:17;9.02;;;6.00;;
51907;SDS011;39320;53.214;6.556;2022-08-19T05:01:45;8.48;;;5.88;;
51907;SDS011;39320;53.214;6.556;2022-08-19T05:04:15;10.02;;;6.40;;
51907;SDS011;39320;53.214;6.556;2022-08-19T05:06:44;10.75;;;6.90;;
51907;SDS011;39320;53.214;6.556;2022-08-19T05:09:13;10.52;;;7.15;;
51907;SDS011;39320;53.214;6.556;2022-08-19T05:11:40;11.50;;;7.80;;
51907;SDS011;39320;53.214;6.556;2022-08-19T05:14:07;9.02;;;6.85;;
51907;SDS011;39320;53.214;6.556;2022-08-19T05:16:33;11.88;;;7.70;;
51907;SDS011;39320;53.214;6.556;2022-08-19T05:18:59;9.75;;;7.78;;
51907;SDS011;39320;53.214;6.556;2022-08-19T05:21:43;10.43;;;7.57;;
51907;SDS011;39320;53.214;6.556;2022-08-19T05:24:30;12.18;;;8.57;;
51907;SDS011;39320;53.214;6.556;2022-08-19T05:26:59;12.43;;;8.07;;
51907;SDS011;39320;53.214;6.556;2022-08-19T05:29:27;12.45;;;8.25;;
51907;SDS011;39320;53.214;6.556;2022-08-19T05:31:54;13.50;;;9.02;;
51907;SDS011;39320;53.214;6.556;2022-08-19T05:34:21;12.25;;;8.73;;
51907;SDS011;39320;53.214;6.556;2022-08-19T05:36:52;11.20;;;8.95;;
51907;SDS011;39320;53.214;6.556;2022-08-19T05:39:22;12.23;;;8.43;;
51907;SDS011;39320;53.214;6.556;2022-08-19T05:42:10;13.48;;;9.73;;
51907;SDS011;39320;53.214;6.556;2022-08-19T05:44:38;14.55;;;8.93;;
51907;SDS011;39320;53.214;6.556;2022-08-19T05:47:08;12.75;;;9.13;;
51907;SDS011;39320;53.214;6.556;2022-08-19T05:49:36;14.15;;;9.32;;
51907;SDS011;39320;53.214;6.556;2022-08-19T05:52:04;15.02;;;9.98;;
51907;SDS011;39320;53.214;6.556;2022-08-19T05:54:32;11.93;;;9.27;;
51907;SDS011;39320;53.214;6.556;2022-08-19T05:57:00;15.63;;;9.80;;
51907;SDS011;39320;53.214;6.556;2022-08-19T05:59:26;12.15;;;9.15;;
51907;SDS011;39320;53.214;6.556;2022-08-19T06:01:52;13.73;;;9.88;;
51907;SDS011;39320;53.214;6.556;2022-08-19T06:04:21;13.95;;;9.77;;
51907;SDS011;39320;53.214;6.556;2022-08-19T06:06:48;12.35;;;9.18;;
51907;SDS011;39320;53.214;6.556;2022-08-19T06:09:17;13.00;;;9.23;;
51907;SDS011;39320;53.214;6.556;2022-08-19T06:11:44;13.30;;;10.13;;
51907;SDS011;39320;53.214;6.556;2022-08-19T06:14:13;13.15;;;9.65;;
51907;SDS011;39320;53.214;6.556;2022-08-19T06:16:41;14.95;;;9.50;;
51907;SDS011;39320;53.214;6.556;2022-08-19T06:19:10;12.68;;;8.70;;
51907;SDS011;39320;53.214;6.556;2022-08-19T06:21:39;12.70;;;9.07;;
51907;SDS011;39320;53.214;6.556;2022-08-19T06:24:07;10.02;;;7.40;;
51907;SDS011;39320;53.214;6.556;2022-08-19T06:26:36;10.18;;;7.82;;
51907;SDS011;39320;53.214;6.556;2022-08-19T06:29:05;9.98;;;6.93;;
51907;SDS011;39320;53.214;6.556;2022-08-19T06:31:33;11.43;;;8.15;;
51907;SDS011;39320;53.214;6.556;2022-08-19T06:34:02;11.93;;;7.78;;
51907;SDS011;39320;53.214;6.556;2022-08-19T06:36:30;13.10;;;8.43;;
51907;SDS011;39320;53.214;6.556;2022-08-19T06:39:06;11.63;;;7.90;;
51907;SDS011;39320;53.214;6.556;2022-08-19T06:41:34;11.80;;;8.30;;
51907;SDS011;39320;53.214;6.556;2022-08-19T06:44:05;11.85;;;7.38;;
51907;SDS011;39320;53.214;6.556;2022-08-19T06:46:31;11.00;;;7.40;;
51907;SDS011;39320;53.214;6.556;2022-08-19T06:48:57;11.65;;;8.65;;
51907;SDS011;39320;53.214;6.556;2022-08-19T06:51:25;10.52;;;7.57;;
51907;SDS011;39320;53.214;6.556;2022-08-19T06:53:52;11.95;;;8.25;;
51907;SDS011;39320;53.214;6.556;2022-08-19T06:56:22;11.25;;;7.90;;
51907;SDS011;39320;53.214;6.556;2022-08-19T06:58:50;11.25;;;7.55;;
51907;SDS011;39320;53.214;6.556;2022-08-19T07:01:18;10.23;;;6.75;;
51907;SDS011;39320;53.214;6.556;2022-08-19T07:03:44;11.25;;;7.72;;
51907;SDS011;39320;53.214;6.556;2022-08-19T07:06:12;13.18;;;7.75;;
51907;SDS011;39320;53.214;6.556;2022-08-19T07:08:40;10.70;;;7.53;;
51907;SDS011;39320;53.214;6.556;2022-08-19T07:11:08;10.20;;;7.78;;
51907;SDS011;39320;53.214;6.556;2022-08-19T07:13:36;10.52;;;8.18;;
51907;SDS011;39320;53.214;6.556;2022-08-19T07:16:06;11.73;;;8.25;;
51907;SDS011;39320;53.214;6.556;2022-08-19T07:18:33;13.10;;;8.70;;
51907;SDS011;39320;53.214;6.556;2022-08-19T07:21:05;13.18;;;9.10;;
51907;SDS011;39320;53.214;6.556;2022-08-19T07:23:40;11.43;;;7.82;;
51907;SDS011;39320;53.214;6.556;2022-08-19T07:28:37;12.52;;;8.93;;
51907;SDS011;39320;53.214;6.556;2022-08-19T07:31:07;11.65;;;7.55;;
51907;SDS011;39320;53.214;6.556;2022-08-19T07:33:34;10.50;;;8.07;;
51907;SDS011;39320;53.214;6.556;2022-08-19T07:36:05;11.30;;;8.40;;
51907;SDS011;39320;53.214;6.556;2022-08-19T07:38:32;11.93;;;8.85;;
51907;SDS011;39320;53.214;6.556;2022-08-19T07:40:59;12.07;;;8.88;;
51907;SDS011;39320;53.214;6.556;2022-08-19T07:43:26;11.52;;;8.50;;
51907;SDS011;39320;53.214;6.556;2022-08-19T07:45:53;14.63;;;8.80;;
51907;SDS011;39320;53.214;6.556;2022-08-19T07:48:25;9.63;;;8.60;;
51907;SDS011;39320;53.214;6.556;2022-08-19T07:50:56;11.75;;;7.70;;
51907;SDS011;39320;53.214;6.556;2022-08-19T07:53:26;11.02;;;8.18;;
51907;SDS011;39320;53.214;6.556;2022-08-19T07:55:53;10.82;;;8.48;;
51907;SDS011;39320;53.214;6.556;2022-08-19T07:58:20;9.80;;;7.45;;
51907;SDS011;39320;53.214;6.556;2022-08-19T08:00:48;11.07;;;8.23;;
51907;SDS011;39320;53.214;6.556;2022-08-19T08:03:16;8.65;;;7.22;;
51907;SDS011;39320;53.214;6.556;2022-08-19T08:05:43;12.30;;;8.10;;
51907;SDS011;39320;53.214;6.556;2022-08-19T08:08:28;10.75;;;7.63;;
51907;SDS011;39320;53.214;6.556;2022-08-19T08:11:13;11.55;;;9.10;;
51907;SDS011;39320;53.214;6.556;2022-08-19T08:13:40;11.50;;;8.48;;
51907;SDS011;39320;53.214;6.556;2022-08-19T08:16:06;14.38;;;9.02;;
51907;SDS011;39320;53.214;6.556;2022-08-19T08:18:32;12.88;;;9.32;;
51907;SDS011;39320;53.214;6.556;2022-08-19T08:20:59;12.15;;;10.40;;
51907;SDS011;39320;53.214;6.556;2022-08-19T08:23:25;12.82;;;8.90;;
51907;SDS011;39320;53.214;6.556;2022-08-19T08:25:52;12.15;;;8.80;;
51907;SDS011;39320;53.214;6.556;2022-08-19T08:28:20;10.77;;;7.18;;
51907;SDS011;39320;53.214;6.556;2022-08-19T08:30:46;11.02;;;8.02;;
51907;SDS011;39320;53.214;6.556;2022-08-19T08:33:14;10.07;;;7.75;;
51907;SDS011;39320;53.214;6.556;2022-08-19T08:35:46;11.10;;;7.53;;
51907;SDS011;39320;53.214;6.556;2022-08-19T08:38:13;10.85;;;8.65;;
51907;SDS011;39320;53.214;6.556;2022-08-19T08:40:47;12.77;;;9.80;;
51907;SDS011;39320;53.214;6.556;2022-08-19T08:46:02;11.65;;;10.02;;
51907;SDS011;39320;53.214;6.556;2022-08-19T08:48:41;14.18;;;11.20;;
51907;SDS011;39320;53.214;6.556;2022-08-19T08:51:20;12.25;;;10.35;;
51907;SDS011;39320;53.214;6.556;2022-08-19T08:53:51;14.85;;;10.73;;
51907;SDS011;39320;53.214;6.556;2022-08-19T08:56:18;13.98;;;11.13;;
51907;SDS011;39320;53.214;6.556;2022-08-19T08:58:54;13.80;;;11.27;;
51907;SDS011;39320;53.214;6.556;2022-08-19T09:01:25;16.15;;;11.70;;
51907;SDS011;39320;53.214;6.556;2022-08-19T09:03:51;14.93;;;11.02;;
51907;SDS011;39320;53.214;6.556;2022-08-19T09:06:21;14.40;;;11.63;;
51907;SDS011;39320;53.214;6.556;2022-08-19T09:09:17;14.15;;;11.13;;
51907;SDS011;39320;53.214;6.556;2022-08-19T09:15:06;13.25;;;10.05;;
51907;SDS011;39320;53.214;6.556;2022-08-19T09:17:24;12.80;;;10.15;;
51907;SDS011;39320;53.214;6.556;2022-08-19T09:22:33;14.68;;;10.48;;
51907;SDS011;39320;53.214;6.556;2022-08-19T09:25:00;15.38;;;11.32;;
51907;SDS011;39320;53.214;6.556;2022-08-19T09:27:27;12.35;;;10.05;;
51907;SDS011;39320;53.214;6.556;2022-08-19T09:29:53;15.13;;;10.20;;
51907;SDS011;39320;53.214;6.556;2022-08-19T09:32:20;15.18;;;9.60;;
51907;SDS011;39320;53.214;6.556;2022-08-19T09:34:47;12.82;;;10.00;;
51907;SDS011;39320;53.214;6.556;2022-08-19T09:37:13;13.13;;;10.57;;
51907;SDS011;39320;53.214;6.556;2022-08-19T09:39:40;11.25;;;9.52;;
51907;SDS011;39320;53.214;6.556;2022-08-19T09:42:07;11.57;;;9.80;;
51907;SDS011;39320;53.214;6.556;2022-08-19T09:44:39;12.82;;;10.48;;
51907;SDS011;39320;53.214;6.556;2022-08-19T09:47:05;11.43;;;10.10;;
51907;SDS011;39320;53.214;6.556;2022-08-19T09:49:32;14.18;;;10.23;;
51907;SDS011;39320;53.214;6.556;2022-08-19T09:51:58;14.45;;;11.02;;
51907;SDS011;39320;53.214;6.556;2022-08-19T09:54:24;14.25;;;11.30;;
51907;SDS011;39320;53.214;6.556;2022-08-19T09:56:51;14.93;;;10.45;;
51907;SDS011;39320;53.214;6.556;2022-08-19T09:59:17;12.90;;;10.18;;
51907;SDS011;39320;53.214;6.556;2022-08-19T10:01:43;11.88;;;10.30;;
51907;SDS011;39320;53.214;6.556;2022-08-19T10:04:09;13.15;;;10.43;;
51907;SDS011;39320;53.214;6.556;2022-08-19T10:06:35;13.05;;;10.98;;
51907;SDS011;39320;53.214;6.556;2022-08-19T10:09:04;13.73;;;10.25;;
51907;SDS011;39320;53.214;6.556;2022-08-19T10:11:35;14.65;;;12.15;;
51907;SDS011;39320;53.214;6.556;2022-08-19T10:14:03;14.68;;;12.00;;
51907;SDS011;39320;53.214;6.556;2022-08-19T10:16:31;15.45;;;12.13;;
51907;SDS011;39320;53.214;6.556;2022-08-19T10:18:57;15.82;;;11.48;;
51907;SDS011;39320;53.214;6.556;2022-08-19T10:21:25;14.68;;;11.68;;
51907;SDS011;39320;53.214;6.556;2022-08-19T10:23:54;15.20;;;11.98;;
51907;SDS011;39320;53.214;6.556;2022-08-19T10:26:24;16.92;;;11.32;;
51907;SDS011;39320;53.214;6.556;2022-08-19T10:28:52;15.63;;;11.95;;
51907;SDS011;39320;53.214;6.556;2022-08-19T10:31:22;13.93;;;11.38;;
51907;SDS011;39320;53.214;6.556;2022-08-19T10:33:53;13.13;;;10.60;;
51907;SDS011;39320;53.214;6.556;2022-08-19T10:36:23;12.88;;;9.65;;
51907;SDS011;39320;53.214;6.556;2022-08-19T10:38:52;15.73;;;12.18;;
51907;SDS011;39320;53.214;6.556;2022-08-19T10:41:22;16.83;;;12.27;;
51907;SDS011;39320;53.214;6.556;2022-08-19T10:43:50;13.27;;;11.38;;
51907;SDS011;39320;53.214;6.556;2022-08-19T10:46:20;16.63;;;13.70;;
51907;SDS011;39320;53.214;6.556;2022-08-19T10:48:47;14.27;;;12.18;;
51907;SDS011;39320;53.214;6.556;2022-08-19T10:51:14;15.77;;;12.25;;
51907;SDS011;39320;53.214;6.556;2022-08-19T10:53:59;15.68;;;12.02;;
51907;SDS011;39320;53.214;6.556;2022-08-19T10:56:26;14.65;;;11.77;;
51907;SDS011;39320;53.214;6.556;2022-08-19T10:59:11;14.50;;;11.27;;
51907;SDS011;39320;53.214;6.556;2022-08-19T11:01:39;14.65;;;12.25;;
51907;SDS011;39320;53.214;6.556;2022-08-19T11:04:07;15.00;;;11.73;;
51907;SDS011;39320;53.214;6.556;2022-08-19T11:06:40;15.15;;;12.38;;
51907;SDS011;39320;53.214;6.556;2022-08-19T11:09:06;14.95;;;11.85;;
51907;SDS011;39320;53.214;6.556;2022-08-19T11:11:33;15.00;;;12.02;;
51907;SDS011;39320;53.214;6.556;2022-08-19T11:14:05;13.88;;;11.18;;
51907;SDS011;39320;53.214;6.556;2022-08-19T11:16:35;15.23;;;12.45;;
51907;SDS011;39320;53.214;6.556;2022-08-19T11:19:03;15.38;;;12.77;;
51907;SDS011;39320;53.214;6.556;2022-08-19T11:21:30;14.75;;;12.00;;
51907;SDS011;39320;53.214;6.556;2022-08-19T11:23:58;13.15;;;11.35;;
51907;SDS011;39320;53.214;6.556;2022-08-19T11:26:27;16.20;;;11.48;;
51907;SDS011;39320;53.214;6.556;2022-08-19T11:28:54;13.82;;;11.00;;
51907;SDS011;39320;53.214;6.556;2022-08-19T11:31:22;15.77;;;12.18;;
51907;SDS011;39320;53.214;6.556;2022-08-19T11:33:50;11.93;;;10.68;;
51907;SDS011;39320;53.214;6.556;2022-08-19T11:36:17;18.30;;;13.32;;
51907;SDS011;39320;53.214;6.556;2022-08-19T11:38:45;19.17;;;15.02;;
51907;SDS011;39320;53.214;6.556;2022-08-19T11:41:13;15.43;;;12.80;;
51907;SDS011;39320;53.214;6.556;2022-08-19T11:43:39;13.90;;;11.60;;
51907;SDS011;39320;53.214;6.556;2022-08-19T11:46:06;14.30;;;11.15;;
51907;SDS011;39320;53.214;6.556;2022-08-19T11:48:33;13.38;;;11.80;;
51907;SDS011;39320;53.214;6.556;2022-08-19T11:51:02;16.50;;;14.10;;
51907;SDS011;39320;53.214;6.556;2022-08-19T11:53:31;13.90;;;11.45;;
51907;SDS011;39320;53.214;6.556;2022-08-19T11:55:58;18.08;;;12.73;;
51907;SDS011;39320;53.214;6.556;2022-08-19T11:58:23;14.70;;;13.10;;
51907;SDS011;39320;53.214;6.556;2022-08-19T12:00:50;15.75;;;12.25;;
51907;SDS011;39320;53.214;6.556;2022-08-19T12:03:17;15.20;;;13.27;;
51907;SDS011;39320;53.214;6.556;2022-08-19T12:05:44;17.70;;;14.65;;
51907;SDS011;39320;53.214;6.556;2022-08-19T12:08:10;14.82;;;13.43;;
51907;SDS011;39320;53.214;6.556;2022-08-19T12:10:38;14.65;;;12.43;;
51907;SDS011;39320;53.214;6.556;2022-08-19T12:13:05;14.75;;;13.02;;
51907;SDS011;39320;53.214;6.556;2022-08-19T12:15:35;14.07;;;11.38;;
51907;SDS011;39320;53.214;6.556;2022-08-19T12:18:01;13.00;;;11.52;;
51907;SDS011;39320;53.214;6.556;2022-08-19T12:20:27;11.90;;;10.70;;
51907;SDS011;39320;53.214;6.556;2022-08-19T12:22:53;15.52;;;11.65;;
51907;SDS011;39320;53.214;6.556;2022-08-19T12:25:19;14.32;;;11.98;;
51907;SDS011;39320;53.214;6.556;2022-08-19T12:27:45;14.15;;;12.65;;
51907;SDS011;39320;53.214;6.556;2022-08-19T12:30:12;14.23;;;11.52;;
51907;SDS011;39320;53.214;6.556;2022-08-19T12:32:39;13.63;;;11.05;;
51907;SDS011;39320;53.214;6.556;2022-08-19T12:35:05;12.93;;;11.20;;
51907;SDS011;39320;53.214;6.556;2022-08-19T12:37:34;16.38;;;12.23;;
51907;SDS011;39320;53.214;6.556;2022-08-19T12:40:00;14.45;;;11.60;;
51907;SDS011;39320;53.214;6.556;2022-08-19T12:42:26;13.38;;;10.80;;
51907;SDS011;39320;53.214;6.556;2022-08-19T12:44:51;16.83;;;12.07;;
51907;SDS011;39320;53.214;6.556;2022-08-19T12:47:17;15.90;;;11.32;;
51907;SDS011;39320;53.214;6.556;2022-08-19T12:49:43;13.32;;;10.45;;
51907;SDS011;39320;53.214;6.556;2022-08-19T12:52:10;12.38;;;10.35;;
51907;SDS011;39320;53.214;6.556;2022-08-19T12:54:36;11.15;;;10.05;;
51907;SDS011;39320;53.214;6.556;2022-08-19T12:57:07;14.18;;;9.43;;
51907;SDS011;39320;53.214;6.556;2022-08-19T12:59:34;13.02;;;9.82;;
51907;SDS011;39320;53.214;6.556;2022-08-19T13:02:02;13.82;;;10.95;;
51907;SDS011;39320;53.214;6.556;2022-08-19T13:04:32;13.38;;;11.65;;
51907;SDS011;39320;53.214;6.556;2022-08-19T13:07:01;16.10;;;11.65;;
51907;SDS011;39320;53.214;6.556;2022-08-19T13:09:28;15.75;;;11.82;;
51907;SDS011;39320;53.214;6.556;2022-08-19T13:11:54;14.18;;;12.55;;
51907;SDS011;39320;53.214;6.556;2022-08-19T13:14:19;13.32;;;11.93;;
51907;SDS011;39320;53.214;6.556;2022-08-19T13:16:45;16.08;;;12.68;;
51907;SDS011;39320;53.214;6.556;2022-08-19T13:19:11;20.73;;;13.05;;
51907;SDS011;39320;53.214;6.556;2022-08-19T13:21:38;17.77;;;13.20;;
51907;SDS011;39320;53.214;6.556;2022-08-19T13:24:03;16.80;;;12.68;;
51907;SDS011;39320;53.214;6.556;2022-08-19T13:26:30;17.58;;;13.07;;
51907;SDS011;39320;53.214;6.556;2022-08-19T13:28:56;19.40;;;14.23;;
51907;SDS011;39320;53.214;6.556;2022-08-19T13:31:40;19.20;;;14.18;;
51907;SDS011;39320;53.214;6.556;2022-08-19T13:36:53;16.42;;;12.05;;
51907;SDS011;39320;53.214;6.556;2022-08-19T13:39:19;14.90;;;10.77;;
51907;SDS011;39320;53.214;6.556;2022-08-19T13:41:46;12.88;;;10.32;;
51907;SDS011;39320;53.214;6.556;2022-08-19T13:44:13;11.65;;;9.23;;
51907;SDS011;39320;53.214;6.556;2022-08-19T13:46:41;16.02;;;10.45;;
51907;SDS011;39320;53.214;6.556;2022-08-19T13:49:11;15.00;;;11.15;;
51907;SDS011;39320;53.214;6.556;2022-08-19T13:51:38;12.85;;;10.30;;
51907;SDS011;39320;53.214;6.556;2022-08-19T13:54:05;17.90;;;10.55;;
51907;SDS011;39320;53.214;6.556;2022-08-19T13:56:31;12.57;;;10.27;;
51907;SDS011;39320;53.214;6.556;2022-08-19T13:58:57;10.23;;;9.15;;
51907;SDS011;39320;53.214;6.556;2022-08-19T14:01:23;12.88;;;9.85;;
51907;SDS011;39320;53.214;6.556;2022-08-19T14:03:49;13.98;;;10.07;;
51907;SDS011;39320;53.214;6.556;2022-08-19T14:06:15;11.00;;;8.50;;
51907;SDS011;39320;53.214;6.556;2022-08-19T14:08:42;9.23;;;6.95;;
51907;SDS011;39320;53.214;6.556;2022-08-19T14:11:08;11.43;;;7.50;;
51907;SDS011;39320;53.214;6.556;2022-08-19T14:13:34;9.02;;;7.57;;
51907;SDS011;39320;53.214;6.556;2022-08-19T14:16:00;11.75;;;8.43;;
51907;SDS011;39320;53.214;6.556;2022-08-19T14:18:26;14.73;;;10.50;;
51907;SDS011;39320;53.214;6.556;2022-08-19T14:20:52;16.42;;;10.70;;
51907;SDS011;39320;53.214;6.556;2022-08-19T14:23:18;15.20;;;10.48;;
51907;SDS011;39320;53.214;6.556;2022-08-19T14:25:44;15.88;;;11.48;;
51907;SDS011;39320;53.214;6.556;2022-08-19T14:28:12;15.63;;;11.77;;
51907;SDS011;39320;53.214;6.556;2022-08-19T14:30:38;20.30;;;13.02;;
51907;SDS011;39320;53.214;6.556;2022-08-19T14:33:04;17.95;;;13.15;;
51907;SDS011;39320;53.214;6.556;2022-08-19T14:35:32;15.68;;;12.07;;
51907;SDS011;39320;53.214;6.556;2022-08-19T14:37:59;17.27;;;12.68;;
51907;SDS011;39320;53.214;6.556;2022-08-19T14:40:26;17.02;;;11.70;;
51907;SDS011;39320;53.214;6.556;2022-08-19T14:42:56;18.10;;;12.05;;
51907;SDS011;39320;53.214;6.556;2022-08-19T14:45:30;19.42;;;11.90;;
51907;SDS011;39320;53.214;6.556;2022-08-19T14:47:57;15.75;;;10.73;;
51907;SDS011;39320;53.214;6.556;2022-08-19T14:50:25;18.52;;;12.05;;
51907;SDS011;39320;53.214;6.556;2022-08-19T14:52:57;15.60;;;12.07;;
51907;SDS011;39320;53.214;6.556;2022-08-19T14:55:30;19.13;;;13.15;;